createdAt,value
2023-04-08T00:00:29.174Z,101473.53
2023-04-08T00:02:55.831Z,101478.50
2023-04-08T00:05:22.579Z,101468.91
2023-04-08T00:07:49.225Z,101482.00
2023-04-08T00:10:16.399Z,101469.38
2023-04-08T00:12:43.030Z,101477.63
2023-04-08T00:15:10.015Z,101467.72
2023-04-08T00:17:36.846Z,101474.66
2023-04-08T00:20:04.098Z,101471.75
2023-04-08T00:22:30.829Z,101467.94
2023-04-08T00:24:58.612Z,101471.81
2023-04-08T00:27:26.376Z,101475.72
2023-04-08T00:29:53.068Z,101475.72
2023-04-08T00:32:19.766Z,101463.06
2023-04-08T00:34:46.553Z,101470.81
2023-04-08T00:37:13.194Z,101470.31
2023-04-08T00:39:39.844Z,101457.66
2023-04-08T00:42:06.752Z,101465.09
2023-04-08T00:44:33.380Z,101461.22
2023-04-08T00:47:00.133Z,101471.75
2023-04-08T00:49:27.154Z,101472.88
2023-04-08T00:51:55.930Z,101472.06
2023-04-08T00:54:23.001Z,101471.53
2023-04-08T00:56:49.693Z,101474.50
2023-04-08T00:59:18.146Z,101466.84
2023-04-08T01:01:59.077Z,101465.81
2023-04-08T01:04:49.937Z,101463.06
2023-04-08T01:07:30.370Z,101459.00
2023-04-08T01:10:02.466Z,101455.75
2023-04-08T01:12:32.148Z,101461.25
2023-04-08T01:15:09.091Z,101462.88
2023-04-08T01:17:38.097Z,101466.66
2023-04-08T01:20:07.494Z,101461.63
2023-04-08T01:23:03.866Z,101460.53
2023-04-08T01:25:32.487Z,101459.41
2023-04-08T01:28:02.041Z,101466.25
2023-04-08T01:30:30.992Z,101456.53
2023-04-08T01:32:59.808Z,101460.13
2023-04-08T01:35:27.019Z,101466.13
2023-04-08T01:37:55.453Z,101468.78
2023-04-08T01:40:22.309Z,101465.69
2023-04-08T01:42:51.039Z,101466.22
2023-04-08T01:45:18.575Z,101465.91
2023-04-08T01:47:48.850Z,101459.56
2023-04-08T01:50:16.760Z,101465.06
2023-04-08T01:52:45.235Z,101458.75
2023-04-08T01:55:12.232Z,101458.44
2023-04-08T01:57:41.705Z,101454.06
2023-04-08T02:00:11.256Z,101453.56
2023-04-08T02:02:39.296Z,101450.28
2023-04-08T02:05:06.529Z,101451.41
2023-04-08T02:07:33.292Z,101448.97
2023-04-08T02:10:00.188Z,101453.66
2023-04-08T02:12:28.363Z,101458.69
2023-04-08T02:14:55.602Z,101442.16
2023-04-08T02:17:35.224Z,101462.56
2023-04-08T02:20:08.667Z,101461.22
2023-04-08T02:22:44.897Z,101460.41
2023-04-08T02:25:16.815Z,101450.00
2023-04-08T02:27:45.726Z,101455.00
2023-04-08T02:30:13.495Z,101452.88
2023-04-08T02:32:40.484Z,101451.25
2023-04-08T02:35:08.337Z,101452.38
2023-04-08T02:37:35.387Z,101451.88
2023-04-08T02:40:02.059Z,101455.75
2023-04-08T02:42:28.715Z,101444.72
2023-04-08T02:44:55.665Z,101455.94
2023-04-08T02:47:22.347Z,101456.78
2023-04-08T02:49:52.513Z,101446.53
2023-04-08T02:52:19.652Z,101446.84
2023-04-08T02:54:46.308Z,101446.34
2023-04-08T02:57:13.140Z,101441.97
2023-04-08T02:59:40.990Z,101456.84
2023-04-08T03:02:07.743Z,101440.31
2023-04-08T03:04:34.465Z,101441.97
2023-04-08T03:07:01.107Z,101443.59
2023-04-08T03:09:27.793Z,101444.09
2023-04-08T03:11:55.001Z,101446.03
2023-04-08T03:14:22.360Z,101438.59
2023-04-08T03:16:49.188Z,101443.78
2023-04-08T03:19:16.258Z,101441.84
2023-04-08T03:21:43.045Z,101437.97
2023-04-08T03:24:09.690Z,101438.28
2023-04-08T03:26:36.361Z,101439.59
2023-04-08T03:29:03.028Z,101446.75
2023-04-08T03:31:29.950Z,101444.47
2023-04-08T03:33:56.734Z,101448.38
2023-04-08T03:36:23.441Z,101440.41
2023-04-08T03:38:50.415Z,101445.91
2023-04-08T03:41:17.329Z,101445.75
2023-04-08T03:43:44.323Z,101441.63
2023-04-08T03:46:11.228Z,101439.81
2023-04-08T03:48:37.919Z,101449.84
2023-04-08T03:51:04.614Z,101440.75
2023-04-08T03:53:31.314Z,101435.53
2023-04-08T03:55:58.068Z,101435.03
2023-04-08T03:58:24.709Z,101431.28
2023-04-08T04:00:51.638Z,101429.13
2023-04-08T04:03:18.693Z,101429.75
2023-04-08T04:05:45.484Z,101423.72
2023-04-08T04:08:12.269Z,101432.50
2023-04-08T04:10:38.880Z,101426.97
2023-04-08T04:13:05.988Z,101428.91
2023-04-08T04:15:32.778Z,101428.09
2023-04-08T04:17:59.457Z,101431.50
2023-04-08T04:20:26.212Z,101437.59
2023-04-08T04:22:52.954Z,101433.22
2023-04-08T04:25:19.648Z,101425.56
2023-04-08T04:27:46.254Z,101433.81
2023-04-08T04:30:15.735Z,101427.81
2023-04-08T04:32:43.204Z,101427.31
2023-04-08T04:35:13.400Z,101425.16
2023-04-08T04:37:40.024Z,101424.66
2023-04-08T04:40:07.669Z,101417.50
2023-04-08T04:42:34.375Z,101422.50
2023-04-08T04:45:01.073Z,101429.47
2023-04-08T04:47:27.687Z,101424.22
2023-04-08T04:49:54.434Z,101423.44
2023-04-08T04:52:21.058Z,101414.66
2023-04-08T04:54:47.751Z,101426.81
2023-04-08T04:57:14.615Z,101429.84
2023-04-08T04:59:41.294Z,101424.94
2023-04-08T05:02:08.045Z,101431.88
2023-04-08T05:04:34.751Z,101438.81
2023-04-08T05:07:01.443Z,101441.56
2023-04-08T05:09:29.531Z,101444.75
2023-04-08T05:11:56.454Z,101448.59
2023-04-08T05:14:23.318Z,101448.91
2023-04-08T05:16:49.910Z,101440.66
2023-04-08T05:19:16.537Z,101441.88
2023-04-08T05:21:43.230Z,101439.09
2023-04-08T05:24:09.859Z,101436.88
2023-04-08T05:26:37.843Z,101435.25
2023-04-08T05:29:04.522Z,101439.44
2023-04-08T05:31:31.148Z,101440.22
2023-04-08T05:33:57.929Z,101442.69
2023-04-08T05:36:24.659Z,101433.28
2023-04-08T05:38:51.518Z,101450.34
2023-04-08T05:41:18.474Z,101442.09
2023-04-08T05:43:45.057Z,101440.13
2023-04-08T05:46:11.759Z,101453.59
2023-04-08T05:48:38.591Z,101451.13
2023-04-08T05:51:05.268Z,101456.13
2023-04-08T05:53:32.251Z,101449.00
2023-04-08T05:55:58.939Z,101449.00
2023-04-08T05:58:25.925Z,101454.81
2023-04-08T06:00:52.701Z,101458.38
2023-04-08T06:03:20.649Z,101458.38
2023-04-08T06:05:47.622Z,101462.97
2023-04-08T06:08:14.222Z,101464.00
2023-04-08T06:10:40.950Z,101466.34
2023-04-08T06:13:07.806Z,101469.00
2023-04-08T06:15:34.501Z,101471.03
2023-04-08T06:18:01.423Z,101475.34
2023-04-08T06:20:28.393Z,101471.97
2023-04-08T06:22:55.313Z,101470.25
2023-04-08T06:25:21.965Z,101482.78
2023-04-08T06:27:48.716Z,101472.28
2023-04-08T06:30:16.569Z,101481.25
2023-04-08T06:32:43.328Z,101473.72
2023-04-08T06:35:10.104Z,101473.94
2023-04-08T06:37:38.640Z,101469.41
2023-04-08T06:40:06.585Z,101476.78
2023-04-08T06:42:33.219Z,101481.03
2023-04-08T06:44:59.908Z,101483.19
2023-04-08T06:47:26.589Z,101486.44
2023-04-08T06:49:54.396Z,101491.34
2023-04-08T06:52:21.277Z,101491.84
2023-04-08T06:54:47.915Z,101492.38
2023-04-08T06:57:14.549Z,101499.50
2023-04-08T06:59:41.225Z,101501.97
2023-04-08T07:02:07.974Z,101498.88
2023-04-08T07:04:34.751Z,101497.44
2023-04-08T07:07:01.520Z,101501.84
2023-04-08T07:09:28.630Z,101503.47
2023-04-08T07:11:55.845Z,101505.94
2023-04-08T07:14:22.548Z,101512.78
2023-04-08T07:16:49.332Z,101511.84
2023-04-08T07:19:16.347Z,101513.47
2023-04-08T07:21:43.066Z,101520.00
2023-04-08T07:24:09.789Z,101517.75
2023-04-08T07:26:36.508Z,101517.66
2023-04-08T07:29:03.153Z,101511.19
2023-04-08T07:31:29.854Z,101514.66
2023-04-08T07:33:56.742Z,101513.41
2023-04-08T07:36:23.399Z,101513.84
2023-04-08T07:38:50.291Z,101520.53
2023-04-08T07:41:17.342Z,101526.75
2023-04-08T07:43:43.959Z,101527.75
2023-04-08T07:46:10.787Z,101525.19
2023-04-08T07:48:37.541Z,101521.00
2023-04-08T07:51:11.127Z,101532.72
2023-04-08T07:53:40.613Z,101543.53
2023-04-08T07:56:18.292Z,101542.47
2023-04-08T07:58:46.861Z,101544.47
2023-04-08T08:01:21.927Z,101556.09
2023-04-08T08:03:52.994Z,101555.97
2023-04-08T08:06:20.918Z,101559.91
2023-04-08T08:08:47.787Z,101559.13
2023-04-08T08:11:14.557Z,101550.38
2023-04-08T08:13:41.320Z,101557.59
2023-04-08T08:16:11.476Z,101570.66
2023-04-08T08:18:40.221Z,101561.59
2023-04-08T08:21:07.966Z,101567.78
2023-04-08T08:23:34.658Z,101565.69
2023-04-08T08:26:03.014Z,101568.16
2023-04-08T08:28:29.696Z,101575.16
2023-04-08T08:30:56.605Z,101577.66
2023-04-08T08:33:23.310Z,101579.16
2023-04-08T08:35:50.064Z,101574.31
2023-04-08T08:38:17.776Z,101574.53
2023-04-08T08:40:45.205Z,101574.88
2023-04-08T08:43:12.254Z,101575.88
2023-04-08T08:45:40.995Z,101578.16
2023-04-08T08:48:10.720Z,101564.75
2023-04-08T08:50:37.374Z,101565.78
2023-04-08T08:53:04.276Z,101575.44
2023-04-08T08:55:56.707Z,101569.94
2023-04-08T08:58:20.590Z,101572.75
2023-04-08T09:00:47.326Z,101567.31
2023-04-08T09:03:19.372Z,101565.09
2023-04-08T09:05:54.918Z,101573.25
2023-04-08T09:08:37.134Z,101565.78
2023-04-08T09:11:18.530Z,101569.88
2023-04-08T09:13:46.374Z,101559.41
2023-04-08T09:16:16.758Z,101563.97
2023-04-08T09:18:46.042Z,101551.63
2023-04-08T09:21:14.280Z,101556.84
2023-04-08T09:23:45.953Z,101562.41
2023-04-08T09:26:13.544Z,101558.19
2023-04-08T09:28:41.739Z,101564.19
2023-04-08T09:31:29.156Z,101561.13
2023-04-08T09:34:02.436Z,101558.44
2023-04-08T09:36:29.186Z,101566.28
2023-04-08T09:38:56.308Z,101561.59
2023-04-08T09:41:24.361Z,101555.56
2023-04-08T09:43:54.312Z,101561.34
2023-04-08T09:46:32.945Z,101569.69
2023-04-08T09:49:07.832Z,101569.34
2023-04-08T09:51:53.314Z,101562.47
2023-04-08T09:54:23.246Z,101565.44
2023-04-08T09:57:00.966Z,101578.09
2023-04-08T09:59:34.002Z,101565.06
2023-04-08T10:02:07.455Z,101564.63
2023-04-08T10:04:41.820Z,101570.50
2023-04-08T10:07:09.508Z,101563.50
2023-04-08T10:09:38.678Z,101575.19
2023-04-08T10:12:05.770Z,101564.03
2023-04-08T10:14:32.691Z,101562.38
2023-04-08T10:17:24.387Z,101569.16
2023-04-08T10:19:51.030Z,101553.53
2023-04-08T10:22:48.919Z,101567.09
2023-04-08T10:25:15.641Z,101567.19
2023-04-08T10:27:43.438Z,101578.31
2023-04-08T10:30:43.873Z,101564.69
2023-04-08T10:33:33.038Z,101564.50
2023-04-08T10:36:12.087Z,101566.03
2023-04-08T10:38:39.855Z,101558.38
2023-04-08T10:41:06.596Z,101553.22
2023-04-08T10:43:35.309Z,101564.22
2023-04-08T10:46:02.600Z,101552.00
2023-04-08T10:48:29.744Z,101556.91
2023-04-08T10:51:06.641Z,101549.69
2023-04-08T10:53:39.203Z,101547.16
2023-04-08T10:56:13.280Z,101542.69
2023-04-08T10:58:54.246Z,101536.81
2023-04-08T11:01:21.449Z,101546.03
2023-04-08T11:03:48.910Z,101543.59
2023-04-08T11:06:17.581Z,101544.66
2023-04-08T11:08:47.457Z,101526.69
2023-04-08T11:11:14.883Z,101539.47
2023-04-08T11:13:52.050Z,101527.88
2023-04-08T11:16:22.075Z,101532.63
2023-04-08T11:18:50.427Z,101531.81
2023-04-08T11:21:17.503Z,101532.25
2023-04-08T11:23:44.275Z,101527.66
2023-04-08T11:26:11.784Z,101517.91
2023-04-08T11:28:38.875Z,101531.94
2023-04-08T11:31:06.299Z,101523.81
2023-04-08T11:33:35.204Z,101521.13
2023-04-08T11:36:06.330Z,101517.19
2023-04-08T11:38:33.184Z,101519.72
2023-04-08T11:41:00.585Z,101527.72
2023-04-08T11:43:28.677Z,101527.13
2023-04-08T11:45:55.858Z,101521.78
2023-04-08T11:48:23.796Z,101519.22
2023-04-08T11:51:03.782Z,101523.72
2023-04-08T11:53:30.597Z,101512.47
2023-04-08T11:55:57.693Z,101515.38
2023-04-08T11:58:24.326Z,101527.03
2023-04-08T12:00:51.069Z,101512.19
2023-04-08T12:03:17.841Z,101516.34
2023-04-08T12:05:44.605Z,101519.69
2023-04-08T12:08:11.647Z,101515.06
2023-04-08T12:10:38.326Z,101515.19
2023-04-08T12:13:04.900Z,101512.19
2023-04-08T12:15:32.881Z,101522.13
2023-04-08T12:17:59.534Z,101516.44
2023-04-08T12:20:26.221Z,101522.69
2023-04-08T12:22:52.849Z,101520.03
2023-04-08T12:25:19.564Z,101519.59
2023-04-08T12:27:46.203Z,101529.81
2023-04-08T12:30:15.361Z,101521.25
2023-04-08T12:32:45.487Z,101518.00
2023-04-08T12:35:12.164Z,101523.47
2023-04-08T12:37:40.000Z,101524.63
2023-04-08T12:40:08.672Z,101533.41
2023-04-08T12:42:35.892Z,101528.34
2023-04-08T12:45:03.897Z,101523.56
2023-04-08T12:47:31.556Z,101526.84
2023-04-08T12:49:58.774Z,101524.06
2023-04-08T12:52:33.768Z,101524.03
2023-04-08T12:55:01.252Z,101525.31
2023-04-08T12:57:28.907Z,101523.09
2023-04-08T12:59:56.159Z,101520.00
2023-04-08T13:02:25.825Z,101517.78
2023-04-08T13:04:53.753Z,101521.38
2023-04-08T13:07:20.324Z,101517.44
2023-04-08T13:09:46.968Z,101524.84
2023-04-08T13:12:13.643Z,101522.28
2023-04-08T13:14:40.755Z,101520.66
2023-04-08T13:17:07.444Z,101515.53
2023-04-08T13:19:34.074Z,101517.63
2023-04-08T13:22:01.316Z,101510.22
2023-04-08T13:24:28.430Z,101514.16
2023-04-08T13:26:55.127Z,101509.06
2023-04-08T13:29:21.836Z,101514.75
2023-04-08T13:31:48.565Z,101513.72
2023-04-08T13:34:15.796Z,101524.16
2023-04-08T13:36:42.497Z,101521.81
2023-04-08T13:39:09.207Z,101527.63
2023-04-08T13:41:35.974Z,101513.00
2023-04-08T13:44:02.642Z,101514.94
2023-04-08T13:46:29.592Z,101511.16
2023-04-08T13:48:56.304Z,101508.16
2023-04-08T13:51:23.223Z,101511.38
2023-04-08T13:53:50.093Z,101508.84
2023-04-08T13:56:16.778Z,101510.22
2023-04-08T13:58:44.760Z,101502.53
2023-04-08T14:01:12.944Z,101499.53
2023-04-08T14:03:39.626Z,101497.25
2023-04-08T14:06:06.841Z,101509.78
2023-04-08T14:08:33.611Z,101491.44
2023-04-08T14:11:00.323Z,101500.25
2023-04-08T14:13:27.061Z,101496.09
2023-04-08T14:15:55.043Z,101498.19
2023-04-08T14:18:21.819Z,101498.91
2023-04-08T14:20:48.667Z,101499.34
2023-04-08T14:23:16.972Z,101491.69
2023-04-08T14:25:43.823Z,101491.56
2023-04-08T14:28:10.499Z,101488.69
2023-04-08T14:30:37.841Z,101482.19
2023-04-08T14:33:05.497Z,101491.22
2023-04-08T14:35:32.628Z,101487.53
2023-04-08T14:37:59.874Z,101492.72
2023-04-08T14:40:26.858Z,101482.88
2023-04-08T14:42:53.965Z,101492.50
2023-04-08T14:45:20.761Z,101485.66
2023-04-08T14:47:47.459Z,101485.44
2023-04-08T14:50:14.247Z,101486.47
2023-04-08T14:52:41.155Z,101490.88
2023-04-08T14:55:08.269Z,101484.16
2023-04-08T14:57:34.955Z,101479.41
2023-04-08T15:00:01.920Z,101480.56
2023-04-08T15:02:28.620Z,101482.88
2023-04-08T15:04:55.545Z,101479.16
2023-04-08T15:07:22.721Z,101480.78
2023-04-08T15:09:49.545Z,101481.47
2023-04-08T15:12:16.178Z,101473.13
2023-04-08T15:14:42.835Z,101469.06
2023-04-08T15:17:10.296Z,101474.06
2023-04-08T15:19:37.040Z,101468.72
2023-04-08T15:22:03.781Z,101474.75
2023-04-08T15:24:30.511Z,101477.41
2023-04-08T15:26:57.331Z,101476.59
2023-04-08T15:29:24.577Z,101478.25
2023-04-08T15:31:51.405Z,101478.91
2023-04-08T15:34:18.582Z,101471.03
2023-04-08T15:36:45.798Z,101478.91
2023-04-08T15:39:12.403Z,101483.66
2023-04-08T15:41:39.184Z,101477.75
2023-04-08T15:44:05.943Z,101471.72
2023-04-08T15:46:33.291Z,101477.50
2023-04-08T15:49:01.540Z,101466.75
2023-04-08T15:51:28.742Z,101473.09
2023-04-08T15:53:55.405Z,101459.78
2023-04-08T15:56:23.782Z,101462.25
2023-04-08T15:58:50.664Z,101472.41
2023-04-08T16:01:18.759Z,101470.22
2023-04-08T16:03:46.378Z,101464.53
2023-04-08T16:06:13.058Z,101461.28
2023-04-08T16:08:40.022Z,101461.47
2023-04-08T16:11:08.086Z,101462.16
2023-04-08T16:13:36.508Z,101457.97
2023-04-08T16:16:03.646Z,101460.28
2023-04-08T16:18:30.904Z,101461.09
2023-04-08T16:20:57.862Z,101458.91
2023-04-08T16:23:26.233Z,101460.53
2023-04-08T16:25:52.875Z,101459.19
2023-04-08T16:28:19.690Z,101457.69
2023-04-08T16:30:47.961Z,101465.13
2023-04-08T16:33:14.849Z,101456.44
2023-04-08T16:35:41.534Z,101459.44
2023-04-08T16:38:08.331Z,101469.44
2023-04-08T16:40:35.226Z,101459.31
2023-04-08T16:43:04.209Z,101463.50
2023-04-08T16:45:32.690Z,101464.09
2023-04-08T16:48:00.381Z,101464.56
2023-04-08T16:50:28.562Z,101456.91
2023-04-08T16:52:55.829Z,101451.56
2023-04-08T16:55:22.618Z,101454.25
2023-04-08T16:57:49.388Z,101448.69
2023-04-08T17:00:18.694Z,101452.84
2023-04-08T17:02:47.602Z,101449.47
2023-04-08T17:05:14.474Z,101447.38
2023-04-08T17:07:41.265Z,101445.28
2023-04-08T17:10:08.581Z,101458.97
2023-04-08T17:12:36.367Z,101448.06
2023-04-08T17:15:04.734Z,101448.72
2023-04-08T17:17:31.435Z,101447.81
2023-04-08T17:24:00.444Z,101442.78
2023-04-08T17:26:28.356Z,101444.28
2023-04-08T17:28:55.047Z,101441.75
2023-04-08T17:31:21.804Z,101435.94
2023-04-08T17:33:48.694Z,101442.03
2023-04-08T17:36:17.491Z,101433.78
2023-04-08T17:38:44.338Z,101432.59
2023-04-08T17:41:13.411Z,101432.81
2023-04-08T17:43:43.097Z,101435.31
2023-04-08T17:46:09.722Z,101438.78
2023-04-08T17:48:36.590Z,101444.53
2023-04-08T17:51:05.651Z,101429.25
2023-04-08T17:53:34.037Z,101425.53
2023-04-08T17:56:01.458Z,101423.00
2023-04-08T17:58:28.353Z,101430.25
2023-04-08T18:00:55.070Z,101429.94
2023-04-08T18:03:21.940Z,101431.38
2023-04-08T18:05:48.983Z,101435.28
2023-04-08T18:08:15.666Z,101428.66
2023-04-08T18:10:43.490Z,101425.28
2023-04-08T18:13:11.665Z,101421.59
2023-04-08T18:15:39.284Z,101432.56
2023-04-08T18:18:05.973Z,101432.97
2023-04-08T18:20:38.469Z,101425.53
2023-04-08T18:23:05.179Z,101423.19
2023-04-08T18:25:32.634Z,101426.16
2023-04-08T18:27:59.589Z,101426.84
2023-04-08T18:30:27.618Z,101429.81
2023-04-08T18:32:54.400Z,101417.63
2023-04-08T18:35:21.258Z,101422.06
2023-04-08T18:37:48.154Z,101418.34
2023-04-08T18:40:15.479Z,101414.16
2023-04-08T18:42:42.097Z,101422.16
2023-04-08T18:45:08.832Z,101421.06
2023-04-08T18:47:35.665Z,101434.31
2023-04-08T18:50:05.191Z,101425.38
2023-04-08T18:52:32.331Z,101427.03
2023-04-08T18:55:02.785Z,101418.94
2023-04-08T18:57:29.767Z,101426.94
2023-04-08T18:59:56.492Z,101413.13
2023-04-08T19:02:24.196Z,101420.00
2023-04-08T19:04:50.949Z,101419.84
2023-04-08T19:07:18.076Z,101411.72
2023-04-08T19:09:44.748Z,101419.38
2023-04-08T19:12:11.524Z,101416.81
2023-04-08T19:14:38.335Z,101425.47
2023-04-08T19:17:05.360Z,101418.47
2023-04-08T19:19:32.729Z,101423.03
2023-04-08T19:22:02.709Z,101430.84
2023-04-08T19:24:29.386Z,101424.84
2023-04-08T19:26:56.147Z,101428.25
2023-04-08T19:29:23.488Z,101433.31
2023-04-08T19:31:50.414Z,101433.31
2023-04-08T19:34:17.111Z,101427.63
2023-04-08T19:36:43.832Z,101434.31
2023-04-08T19:39:10.440Z,101438.56
2023-04-08T19:41:37.105Z,101442.13
2023-04-08T19:44:05.019Z,101442.13
2023-04-08T19:46:32.769Z,101444.41
2023-04-08T19:48:59.718Z,101431.72
2023-04-08T19:51:27.480Z,101436.75
2023-04-08T19:53:54.268Z,101438.72
2023-04-08T19:56:21.708Z,101448.19
2023-04-08T19:58:49.714Z,101446.53
2023-04-08T20:01:16.970Z,101439.72
2023-04-08T20:03:52.881Z,101439.56
2023-04-08T20:06:20.266Z,101439.06
2023-04-08T20:08:47.150Z,101445.09
2023-04-08T20:11:14.022Z,101447.38
2023-04-08T20:13:40.931Z,101448.84
2023-04-08T20:16:07.823Z,101447.22
2023-04-08T20:18:34.588Z,101445.59
2023-04-08T20:21:01.292Z,101446.41
2023-04-08T20:23:28.560Z,101451.47
2023-04-08T20:25:55.232Z,101447.06
2023-04-08T20:28:21.996Z,101445.41
2023-04-08T20:30:48.612Z,101447.72
2023-04-08T20:33:15.493Z,101443.00
2023-04-08T20:35:42.492Z,101451.94
2023-04-08T20:38:09.788Z,101439.56
2023-04-08T20:40:36.545Z,101446.75
2023-04-08T20:43:03.309Z,101446.25
2023-04-08T20:45:30.784Z,101439.41
2023-04-08T20:47:57.539Z,101442.50
2023-04-08T20:50:24.733Z,101450.34
2023-04-08T20:52:51.758Z,101443.16
2023-04-08T20:55:18.541Z,101452.28
2023-04-08T20:57:45.592Z,101449.81
2023-04-08T21:00:13.760Z,101452.59
2023-04-08T21:02:40.813Z,101455.69
2023-04-08T21:05:07.870Z,101452.13
2023-04-08T21:07:35.006Z,101443.31
2023-04-08T21:10:01.674Z,101444.47
2023-04-08T21:12:28.305Z,101435.66
2023-04-08T21:14:54.930Z,101435.50
2023-04-08T21:17:21.580Z,101434.19
2023-04-08T21:19:48.194Z,101430.66
2023-04-08T21:22:16.591Z,101425.72
2023-04-08T21:24:43.320Z,101424.91
2023-04-08T21:27:09.989Z,101416.91
2023-04-08T21:29:36.668Z,101419.38
2023-04-08T21:32:03.423Z,101416.13
2023-04-08T21:34:30.120Z,101416.78
2023-04-08T21:36:56.838Z,101412.84
2023-04-08T21:39:23.443Z,101413.53
2023-04-08T21:41:50.182Z,101406.53
2023-04-08T21:44:16.925Z,101408.00
2023-04-08T21:46:43.594Z,101395.28
2023-04-08T21:49:11.392Z,101389.75
2023-04-08T21:51:39.284Z,101388.13
2023-04-08T21:54:05.987Z,101392.81
2023-04-08T21:56:32.704Z,101378.22
2023-04-08T21:58:59.371Z,101378.22
2023-04-08T22:01:26.671Z,101383.75
2023-04-08T22:03:55.560Z,101378.50
2023-04-08T22:06:31.612Z,101381.63
2023-04-08T22:08:59.088Z,101375.59
2023-04-08T22:11:25.705Z,101373.50
2023-04-08T22:13:52.448Z,101357.53
2023-04-08T22:16:19.132Z,101348.25
2023-04-08T22:18:46.645Z,101351.69
2023-04-08T22:21:13.588Z,101361.44
2023-04-08T22:23:40.784Z,101367.78
2023-04-08T22:26:07.443Z,101366.66
2023-04-08T22:28:34.503Z,101376.59
2023-04-08T22:31:01.472Z,101362.09
2023-04-08T22:33:28.224Z,101355.75
2023-04-08T22:35:57.451Z,101359.00
2023-04-08T22:38:24.311Z,101362.59
2023-04-08T22:40:51.187Z,101366.16
2023-04-08T22:43:17.844Z,101358.66
2023-04-08T22:45:44.543Z,101365.84
2023-04-08T22:48:11.571Z,101365.03
2023-04-08T22:50:38.313Z,101363.06
2023-04-08T22:53:05.240Z,101359.16
2023-04-08T22:55:32.317Z,101351.19
2023-04-08T22:57:58.975Z,101349.72
2023-04-08T23:00:25.933Z,101356.06
2023-04-08T23:02:54.453Z,101351.38
2023-04-08T23:05:21.561Z,101350.53
2023-04-08T23:07:49.343Z,101355.25
2023-04-08T23:10:16.234Z,101342.06
2023-04-08T23:12:42.917Z,101345.50
2023-04-08T23:15:09.952Z,101339.16
2023-04-08T23:17:36.704Z,101325.66
2023-04-08T23:20:03.508Z,101328.75
2023-04-08T23:22:30.227Z,101316.06
2023-04-08T23:24:56.899Z,101311.66
2023-04-08T23:27:23.610Z,101315.88
2023-04-08T23:29:50.296Z,101308.56
2023-04-08T23:32:16.987Z,101306.16
2023-04-08T23:34:43.699Z,101320.63
2023-04-08T23:37:10.334Z,101299.16
2023-04-08T23:39:36.985Z,101298.66
2023-04-08T23:42:03.769Z,101290.69
2023-04-08T23:44:30.487Z,101296.84
2023-04-08T23:46:57.117Z,101294.44
2023-04-08T23:49:23.814Z,101304.53
2023-04-08T23:51:53.623Z,101295.25
2023-04-08T23:54:20.365Z,101284.81
2023-04-08T23:56:46.962Z,101288.22
2023-04-08T23:59:13.593Z,101287.28
